Tiempo atmosférico en la estación meteorológica de Cáceres, Cáceres (405 m.)



Fecha
DESCASC
Temp. máxima en grados centígrados (hora)
DESCASC
Temp. mínima en grados centígrados (hora)
DESCASC
Temp. media en grados centígrados
DESCASC
Racha de viento máxima en m/sg (hora)
DESCASC
Velocidad máxima media en intervalos de 10 minutos(hora)
DESCASC
Precipitaciones diarias en mm
DESCASC
Precipitaciones de 00:00 a 06:00 en mm
DESCASC
Precipitaciones de 06:00 a 12:00 en mm
DESCASC
Precipitaciones de 12:00 a 18:00 en mm
DESCASC
Precipitaciones de 18:00 a 24:00 en mm
DESCASC
20-09-2018 33.8 (16:10) 18.7 (08:10) 26.3 8.33 (22:00) 4.72 (22:00) 0 0 0 0 0
19-09-2018 33.2 (17:30) 17.2 (08:30) 25.2 6.39 (18:10) 3.61 (15:20) 0 0 0 0 0
18-09-2018 31.9 (17:20) 18.5 (07:40) 25.2 9.44 (00:40) 6.94 (00:40) 0 0 0 0 0
17-09-2018 32.7 (16:20) 18.5 (05:50) 25.6 16.39 (18:40) 11.39 (18:50) 8.4 0 0 2.6 5.8
16-09-2018 32 (17:20) 18.4 (00:00) 25.2 10.28 (18:50) 6.94 (19:00) 0 0 0 0 0
15-09-2018 32.3 (18:40) 17.7 (00:00) 25 13.33 (00:50) 10 (00:30) 1.6 0 0 0 1.6
14-09-2018 35 (17:00) 19 (00:00) 27 16.94 (23:30) 11.94 (23:30) 10.7 0 0 0 10.7
13-09-2018 34.2 (18:00) 20.5 (00:00) 27.4 6.11 (23:40) 4.72 (23:40) 0 0 0 0 0
12-09-2018 33.8 (18:00) 18.8 (00:00) 26.3 5.83 (16:00) 3.06 (16:00) 0 0 0 0 0
11-09-2018 31.9 (16:40) 18.9 (00:00) 25.4 11.11 (13:20) 5.28 (11:00) 0 0 0 0 0
10-09-2018 31.5 (18:00) 16.3 (00:00) 23.9 10.56 (14:50) 4.17 (17:00) 0 0 0 0 0
09-09-2018 29.9 (17:40) 16.1 (00:00) 23 11.39 (18:10) 5.83 (18:10) 0 0 0 0 0
08-09-2018 29.9 (18:10) 18.3 (00:00) 24.1 8.06 (15:50) 4.72 (15:50) 0 0 0 0 0
07-09-2018 32.3 (17:30) 16.3 (00:00) 24.3 10.28 (15:40) 6.67 (22:30) 0 0 0 0 0
06-09-2018 29.3 (19:00) 16.3 (00:00) 22.8 6.11 (04:40) 4.72 (04:40) 0 0 0 0 0
05-09-2018 26.4 (17:30) 18.4 (00:00) 22.4 9.44 (06:20) 6.67 (06:20) 0 0 0 0 0
04-09-2018 28 (17:30) 17.2 (00:00) 22.6 9.17 (15:40) 5.83 (08:10) 0 0 0 0 0
03-09-2018 29.9 (00:00) 20.9 (00:00) 25.4 11.67 (02:30) 8.61 (02:30) 0 0 0 0 0
02-09-2018 37.4 (16:40) 23.9 (00:00) 30.7 9.72 (01:40) 7.22 (01:30) 0 0 0 0 0
01-09-2018 37.9 (17:30) 21.1 (00:00) 29.5 7.5 (17:50) 4.44 (14:40) 0 0 0 0 0
31-08-2018 37.1 (16:50) 19.7 (00:00) 28.4 6.39 (14:50) 3.06 (15:20) 0 0 0 0 0
30-08-2018 35.2 (17:30) 17.6 (00:00) 26.4 7.22 (00:10) 3.89 (23:10) 0 0 0 0 0
29-08-2018 32.1 (18:10) 16.7 (00:00) 24.4 8.33 (02:40) 5.56 (05:10) 0 0 0 0 0
28-08-2018 32.1 (17:40) 20.7 (00:00) 26.4 12.78 (00:20) 7.22 (01:20) 0 0 0 0 0
27-08-2018 36.6 (18:00) 17.4 (00:00) 27 11.11 (23:59) 6.67 (23:59) 0 0 0 0 0
26-08-2018 36.3 (18:20) 16.5 (00:00) 26.4 9.17 (14:50) 4.17 (17:00) 0 0 0 0 0
25-08-2018 35.5 (17:10) 20 (00:00) 27.8 8.33 (17:30) 4.72 (17:50) 0 0 0 0 0
24-08-2018 36.3 (17:40) 21.1 (00:00) 28.7 8.06 (18:10) 4.44 (18:10) 0 0 0 0 0

Gráficas

Temp. máximas Temp. mínimas Temp. medias Precipitaciones Rachas de viento máximas Velocidades máximas media en intervalos de 10 minutos

Datos horarios

Fecha y hora oficial Temperatura (ºC) Velocidad del viento (km/h) Dirección del viento Racha (km/h) Dirección de racha Precipitación (mm) Presión (hPa) Tendencia (hPa) Humedad (%)
2018-09-22 23:00:00 25.3 6 Sudoeste 8 Sur 0 976.4 1.1 37
2018-09-22 22:00:00 26.1 6 Sudoeste 9 Sudoeste 0 976.2 1.1 35
2018-09-22 21:00:00 27.4 6 Sudoeste 9 Sudoeste 0 975.7 0.5 33
2018-09-22 20:00:00 32 3 Sudoeste 9 Sudoeste 0 975.3 -0.2 27
2018-09-22 19:00:00 34.8 3 Sudeste 12 Noroeste 0 975.1 -0.7 19
2018-09-22 18:00:00 34.8 4 Nordeste 15 Oeste 0 975.2 -1.1 19
2018-09-22 17:00:00 34.4 6 Noroeste 19 Oeste 0 975.5 -1.3 19
2018-09-22 16:00:00 34.6 11 Sudoeste 19 Sudoeste 0 975.8 -1.5 22
2018-09-22 15:00:00 34 7 Este 16 Sudeste 0 976.3 -1.1 22
2018-09-22 14:00:00 33.2 5 Este 13 Nordeste 0 976.8 -0.3 22
2018-09-22 13:00:00 31.2 3 Nordeste 9 Nordeste 0 977.3 0.6 25
2018-09-22 12:00:00 28.5 5 Nordeste 10 Nordeste 0 977.4 1.1 32
2018-09-22 11:00:00 26 4 Nordeste 8 Nordeste 0 977.1 1.4 38
2018-09-22 10:00:00 22.7 0 Calma 4 Oeste 0 976.7 1.4 42
2018-09-22 09:00:00 19.2 2 Noroeste 4 Sur 0 976.3 1.3 54
2018-09-22 08:00:00 18.5 0 Calma 4 Sudoeste 0 975.7 1 55
2018-09-22 07:00:00 18.8 3 Sudoeste 7 Sudoeste 0 975.3 0.4 54
2018-09-22 06:00:00 19.6 4 Sudoeste 6 Sudoeste 0 975 0.2 52
2018-09-22 05:00:00 19.9 4 Sudoeste 7 Sudoeste 0 974.7 0 50
2018-09-22 04:00:00 20.6 5 Sudoeste 7 Sudoeste 0 974.9 0.1 46
2018-09-22 03:00:00 21.2 4 Sudoeste 8 Sudoeste 0 974.8 0.2 44
2018-09-22 02:00:00 22.3 6 Sudoeste 10 Sudoeste 0 974.7 0.4 40
2018-09-22 01:00:00 23.4 5 Sudoeste 12 Sudoeste 0 974.8 1 37
2018-09-22 00:00:00 24.6 7 Sudoeste 18 Sudoeste 0 974.6 1.5 34
2018-09-21 23:00:00 24.1 6 Sudoeste 10 Sudoeste 0 974.3 1.5 36
2018-09-21 22:00:00 24.6 8 Sudoeste 10 Sudoeste 0 973.8 1.3 35
2018-09-21 21:00:00 26.7 5 Sudoeste 10 Norte 0 973.1 0.7 31
2018-09-21 20:00:00 30.6 6 Norte 18 Norte 0 972.8 0.3 23
2018-09-21 19:00:00 32.2 7 Noroeste 17 Noroeste 0 972.5 -0.2 20
2018-09-21 18:00:00 32.6 10 Noroeste 19 Noroeste 0 972.4 -0.9 21
2018-09-21 17:00:00 32.8 6 Norte 20 Noroeste 0 972.5 -1.5 21
2018-09-21 16:00:00 32.9 8 Oeste 18 Oeste 0 972.7 -1.6 22
2018-09-21 15:00:00 32.2 6 Sudoeste 18 Norte 0 973.3 -1.4 22
2018-09-21 14:00:00 30.8 6 Oeste 13 Oeste 0 974 -0.5 23
2018-09-21 13:00:00 29.4 4 Oeste 10 Noroeste 0 974.3 0 26
2018-09-21 12:00:00 26.9 5 Noroeste 18 Norte 0 974.7 1.1 31
2018-09-21 11:00:00 24.4 10 Norte 17 Noroeste 0 974.5 1.7 36
2018-09-21 10:00:00 21.8 8 Noroeste 14 Noroeste 0 974.3 2.1 42
2018-09-21 09:00:00 19.2 3 Sudoeste 8 Oeste 0 973.6 1.2 56
2018-09-21 08:00:00 18.8 4 Sudoeste 8 Oeste 0 972.8 0.6 55
2018-09-21 07:00:00 19.9 5 Oeste 7 Sudoeste 0 972.2 0 51
2018-09-21 06:00:00 20.7 5 Oeste 14 Noroeste 0 972.4 -0.1 49
2018-09-21 05:00:00 21 6 Sudoeste 8 Oeste 0 972.2 -0.5 49
2018-09-21 04:00:00 21.8 5 Oeste 13 Oeste 0 972.2 -0.5 44
2018-09-21 03:00:00 23.1 7 Oeste 12 Noroeste 0 972.5 0 38
2018-09-21 02:00:00 24.2 7 Oeste 14 Oeste 0 972.7 0.4 35
2018-09-21 01:00:00 25.2 7 Noroeste 16 Noroeste 0 972.7 0.6 36
2018-09-21 00:00:00 26.1 9 Noroeste 22 Oeste 0 972.5 1 34
2018-09-20 23:00:00 26.9 14 Oeste 25 Noroeste 0 972.3 1.1 32
2018-09-20 22:00:00 28.3 17 Noroeste 30 Noroeste 0 972.1 1.2 30
2018-09-20 21:00:00 27.7 8 Sur 10 Sur 0 971.5 0.2 38
2018-09-20 20:00:00 30.7 5 Oeste 11 Oeste 0 971.2 -0.5 31
2018-09-20 19:00:00 32.8 8 Oeste 17 Oeste 0 970.9 -1.3 26
2018-09-20 18:00:00 33.4 6 Sudoeste 22 Sudoeste 0 971.3 -1.5 25
2018-09-20 17:00:00 33.6 10 Sur 26 Sur 0 971.7 -1.8 25
2018-09-20 16:00:00 33.6 11 Sur 26 Sudoeste 0 972.2 -2 27
2018-09-20 15:00:00 32.7 11 Sudoeste 21 Sudoeste 0 972.8 -1.7 30
2018-09-20 14:00:00 32.2 8 Sur 17 Sudoeste 0 973.5 -1 32
2018-09-20 13:00:00 31 7 Sudeste 17 Sudoeste 0 974.2 0 31
2018-09-20 12:00:00 28.9 3 Sur 12 Este 0 974.5 0.6 36
2018-09-20 11:00:00 25.8 6 Este 11 Este 0 974.5 0.8 36
2018-09-20 10:00:00 22.9 4 Este 7 Este 0 974.2 0.6 49
2018-09-20 09:00:00 19.6 0 Calma 7 Sudoeste 0 973.9 0.4 54
2018-09-20 08:00:00 18.8 4 Sudoeste 7 Sudeste 0 973.7 0.1 54
2018-09-20 07:00:00 19.5 4 Sudoeste 8 Sudoeste 0 973.6 -0.2 50
2018-09-20 06:00:00 20.1 2 Sur 6 Oeste 0 973.5 -0.5 48
2018-09-20 05:00:00 21 5 Sudoeste 8 Sudoeste 0 973.6 -0.6 46
2018-09-20 04:00:00 21.6 6 Sudoeste 10 Sudoeste 0 973.8 -0.7 48
2018-09-20 03:00:00 21.9 6 Sudoeste 9 Sudoeste 0 974 -0.6 47
2018-09-20 02:00:00 22.7 6 Sudoeste 10 Sudoeste 0 974.2 -0.4 43
2018-09-20 01:00:00 22.4 7 Sudoeste 9 Sudoeste 0 974.5 0.6 43
2018-09-20 00:00:00 25.1 5 Oeste 9 Oeste 0 974.6 1.2 31
2018-09-19 23:00:00 25.9 5 Noroeste 14 Sudoeste 0 974.6 1.3 33
2018-09-19 22:00:00 25.5 10 Sudoeste 14 Sudoeste 0 973.9 0.8 38
2018-09-19 21:00:00 26.6 8 Sudoeste 10 Sudoeste 0 973.4 0.4 37
2018-09-19 20:00:00 30.4 6 Oeste 12 Noroeste 0 973.3 0.1 28
2018-09-19 19:00:00 32.4 7 Oeste 23 Noroeste 0 973.1 -0.6 22
2018-09-19 18:00:00 33.1 8 Oeste 19 Oeste 0 973 -1.2 22
2018-09-19 17:00:00 32.8 6 Oeste 18 Noroeste 0 973.2 -1.4 23
2018-09-19 16:00:00 32.5 7 Oeste 21 Sur 0 973.7 -1.4 26
2018-09-19 15:00:00 32.3 10 Sur 21 Sur 0 974.2 -1.2 27
2018-09-19 14:00:00 30.5 5 Norte 12 Norte 0 974.6 -0.4 30
2018-09-19 13:00:00 28.3 6 Norte 10 Norte 0 975.1 0.7 35
2018-09-19 12:00:00 26 4 Norte 8 Noroeste 0 975.4 1.3 43
2018-09-19 11:00:00 24 3 Nordeste 7 Nordeste 0 975 1.4 49
2018-09-19 10:00:00 21.5 3 Este 6 Este 0 974.4 1.1 61
2018-09-19 09:00:00 18.8 2 Sudoeste 7 Sudoeste 0 974.1 1.3 68
2018-09-19 08:00:00 17.5 5 Sudoeste 8 Sudoeste 0 973.6 0.9 64
2018-09-19 07:00:00 17.8 3 Sudoeste 9 Sudoeste 0 973.3 0.4 64
2018-09-19 06:00:00 18.8 4 Sudoeste 7 Sudoeste 0 972.8 -0.1 56
2018-09-19 05:00:00 19.9 4 Sudoeste 6 Sudoeste 0 972.7 -0.3 57
2018-09-19 04:00:00 20.8 3 Oeste 8 Oeste 0 972.9 -0.2 55
2018-09-19 03:00:00 22.4 2 Noroeste 14 Oeste 0 972.9 -0.1 49
2018-09-19 02:00:00 23.2 10 Oeste 17 Oeste 0 973 0.5 44
2018-09-19 01:00:00 22.9 8 Oeste 12 Oeste 0 973.1 1.2 43
2018-09-19 00:00:00 24.1 8 Oeste 22 Oeste 0 973 2.2 40
2018-09-18 23:00:00 25.6 16 Oeste 30 Oeste 0 972.5 2.2 35
2018-09-18 22:00:00 26.6 11 Oeste 23 Oeste 0 971.9 2 36
2018-09-18 21:00:00 28 7 Oeste 14 Noroeste 0 970.8 1 37
2018-09-18 20:00:00 29.6 8 Oeste 19 Sudoeste 0 970.3 0.5 34
2018-09-18 19:00:00 31 9 Oeste 19 Noroeste 0 969.9 -0.2 31
2018-09-18 18:00:00 30 10 Noroeste 26 Oeste 0 969.8 -1 34
2018-09-18 17:00:00 31.7 9 Oeste 18 Noroeste 0 969.8 -1.5 31
2018-09-18 16:00:00 29.4 4 Noroeste 15 Sudoeste 0 970.1 -1.5 39
2018-09-18 15:00:00 29.8 6 Norte 21 Sudoeste 0 970.8 -0.7 38
2018-09-18 14:00:00 29.5 9 Sudoeste 16 Sudoeste 0 971.3 -0.4 44
2018-09-18 13:00:00 28.2 9 Sudoeste 15 Sudoeste 0 971.6 0.3 46
2018-09-18 12:00:00 26.6 5 Noroeste 9 Este 0 971.5 0.6 54
2018-09-18 11:00:00 24.4 4 Norte 9 Norte 0 971.7 1.3 63
2018-09-18 10:00:00 22.7 0 Calma 5 Nordeste 0 971.3 1.2 70
2018-09-18 09:00:00 20.3 0 Calma 6 Sudoeste 0 970.9 1 76
2018-09-18 08:00:00 18.6 3 Sur 9 Sudoeste 0 970.4 0.8 84
2018-09-18 07:00:00 18.7 3 Sudoeste 8 Sur 0 970.1 0.8 83
2018-09-18 06:00:00 19.9 2 Este 9 Oeste 0 969.9 0.3 79
2018-09-18 05:00:00 21.1 3 Oeste 10 Este 0 969.6 0 74
2018-09-18 04:00:00 22.6 6 Sur 26 Sur 0 969.3 -0.7 63
2018-09-18 03:00:00 22.5 22 Sur 29 Sur 0 969.6 -0.5 63
2018-09-18 02:00:00 22.4 20 Sur 31 Sur 0 969.6 0.3 64
2018-09-18 01:00:00 22.5 22 Sur 34 Sur 0 970 1 66
2018-09-18 00:00:00 23.1 22 Sur 28 Sur 0 970.1 1.6 65
2018-09-17 23:00:00 24 21 Sur 33 Sudoeste 0 969.3 1.4 61
2018-09-17 22:00:00 26.1 22 Sudoeste 28 Sudoeste 0 969 0.2 49
2018-09-17 21:00:00 25.6 17 Sudoeste 28 Sur 0 968.5 0.1 50
2018-09-17 20:00:00 23.1 23 Sur 44 Sudoeste 0 967.9 -0.5 64
2018-09-17 19:00:00 20.5 35 Sur 59 Sur 5.8 968.8 -0.2 82
2018-09-17 18:00:00 25.5 15 Sudeste 26 Este 2.6 968.4 -1.7 67
2018-09-17 17:00:00 31.9 5 Norte 17 Sudoeste 0 968.4 -2.4 32
2018-09-17 16:00:00 31.8 6 Norte 19 Oeste 0 969 -2.2 31
2018-09-17 15:00:00 31.8 13 Sudoeste 22 Oeste 0 970.1 -1.7 32
2018-09-17 14:00:00 30.5 8 Sur 17 Sudoeste 0 970.8 -1.2 37
2018-09-17 13:00:00 28.5 7 Norte 13 Este 0 971.2 -0.6 44
2018-09-17 12:00:00 26.1 6 Nordeste 12 Este 0 971.8 0.1 50
2018-09-17 11:00:00 23.3 5 Nordeste 8 Nordeste 0 972 0.7 62
2018-09-17 10:00:00 20.2 3 Este 8 Norte 0 971.8 0.6 74
2018-09-17 09:00:00 18.7 3 Noroeste 9 Sudoeste 0 971.7 0.6 71
2018-09-17 08:00:00 19.3 5 Sudeste 9 Sudoeste 0 971.3 0.1 67
2018-09-17 07:00:00 18.8 5 Sudoeste 9 Sudeste 0 971.2 -0.4 70
2018-09-17 06:00:00 18.7 2 Sur 4 Sudoeste 0 971.1 -0.8 70
2018-09-17 05:00:00 19.3 3 Sudoeste 10 Oeste 0 971.2 -1 69
2018-09-17 04:00:00 20.5 5 Sudoeste 7 Sudoeste 0 971.6 -0.9 63
2018-09-17 03:00:00 20.4 3 Oeste 6 Sudoeste 0 971.9 -0.9 64
2018-09-17 02:00:00 21.2 5 Sur 8 Sudeste 0 972.2 -0.6 62
2018-09-17 01:00:00 21.8 3 Sur 11 Sur 0 972.5 -0.2 61
2018-09-17 00:00:00 22.9 6 Nordeste 15 Nordeste 0 972.8 0.4 63
2018-09-16 23:00:00 23.8 5 Oeste 12 Sur 0 972.8 0.1 50
2018-09-16 22:00:00 25.5 6 Sudoeste 14 Sudoeste 0 972.7 -0.1 46
2018-09-16 21:00:00 26.5 9 Sudoeste 21 Sur 0 972.4 0.2 40
2018-09-16 20:00:00 25.6 10 Oeste 34 Norte 0 972.7 0.4 43
2018-09-16 19:00:00 27.6 25 Este 37 Este 0 972.8 -0.3 36
2018-09-16 18:00:00 31.1 8 Nordeste 14 Este 0 972.2 -1.5 33
2018-09-16 17:00:00 31.3 4 Nordeste 18 Este 0 972.3 -2.1 33
2018-09-16 16:00:00 30.5 9 Este 15 Sudeste 0 973.1 -2.1 35
2018-09-16 15:00:00 30.7 8 Este 22 Este 0 973.7 -1.8 37
2018-09-16 14:00:00 29 11 Este 19 Este 0 974.4 -0.9 44
2018-09-16 13:00:00 27.6 12 Este 17 Este 0 975.2 0.2 47
2018-09-16 12:00:00 26.4 8 Este 14 Este 0 975.5 0.5 53
2018-09-16 11:00:00 24.8 10 Este 17 Este 0 975.3 0.9 59
2018-09-16 10:00:00 23 10 Este 21 Sudeste 0 975 0.9 66
2018-09-16 09:00:00 20.6 12 Sudeste 18 Sudeste 0 975 1.2 74
2018-09-16 08:00:00 19 2 Nordeste 12 Sudeste 0 974.4 0.8 81
2018-09-16 07:00:00 18.6 3 Sudeste 9 Este 0 974.1 0.6 84
2018-09-16 06:00:00 19.5 3 Oeste 9 Sudoeste 0 973.8 0.3 79
2018-09-16 05:00:00 20.9 5 Oeste 15 Sur 0 973.6 -0.1 70
2018-09-16 04:00:00 22.5 16 Sur 26 Sur 0 973.5 -0.3 64
2018-09-16 03:00:00 23.5 19 Sur 28 Sur 0 973.5 -0.3 60
2018-09-16 02:00:00 21.7 5 Sur 10 Sur 0 973.7 0.1 72
2018-09-16 01:00:00 21.8 5 Sudoeste 12 Este 0 973.8 0.9 71
2018-09-16 00:00:00 22.5 5 Sudoeste 12 Sudoeste 0 973.8 1.7 67
2018-09-15 23:00:00 23 8 Sudoeste 13 Este 0 973.6 1.6 69
2018-09-15 22:00:00 23.1 6 Sudoeste 12 Sur 0 972.9 1.2 66
2018-09-15 21:00:00 24 7 Sudoeste 24 Oeste 0 972.1 0.7 65
2018-09-15 20:00:00 24.2 16 Sudoeste 31 Sudeste 1.6 972 0.3 71
2018-09-15 19:00:00 32.3 4 Noroeste 12 Oeste 0 971.7 -0.3 31
2018-09-15 18:00:00 31.8 9 Oeste 15 Sudoeste 0 971.4 -1.4 31
2018-09-15 17:00:00 31.2 8 Norte 19 Noroeste 0 971.7 -1.6 34
2018-09-15 16:00:00 30.8 7 Noroeste 17 Oeste 0 972 -1.6 36
2018-09-15 15:00:00 30.2 7 Sudoeste 14 Sudoeste 0 972.8 -1 38
2018-09-15 14:00:00 28.7 6 Este 19 Sudeste 0 973.3 -0.5 45
2018-09-15 13:00:00 26.1 7 Este 16 Este 0 973.6 -0.1 56
2018-09-15 12:00:00 23.8 6 Este 14 Este 0 973.8 0.6 64
2018-09-15 11:00:00 22.3 4 Nordeste 9 Este 0.8 973.8 1.2 71
2018-09-15 10:00:00 21.2 4 Este 8 Este 0 973.7 1.4 76
2018-09-15 09:00:00 18.7 3 Noroeste 8 Sur 0 973.2 1.2 81
2018-09-15 08:00:00 18.2 4 Sudoeste 8 Sudoeste 0 972.6 0.6 82
2018-09-15 07:00:00 17.7 5 Sudoeste 8 Sudoeste 0 972.3 -0.4 86
2018-09-15 06:00:00 18 4 Sudoeste 8 Sudoeste 0 972 -0.8 86
2018-09-15 05:00:00 17.8 4 Oeste 8 Sudoeste 0 972 -0.4 90
2018-09-15 04:00:00 17.9 5 Sudoeste 9 Sudoeste 0 972.7 0.3 89
2018-09-15 03:00:00 18.6 3 Nordeste 19 Oeste 0 972.8 -0.8 87
2018-09-15 02:00:00 19.8 14 Noroeste 44 Sudoeste 0 972.4 -0.4 75
2018-09-15 01:00:00 19.4 33 Sudoeste 48 Sudoeste 0 972.4 0.3 80
2018-09-15 00:00:00 19.1 33 Sur 61 Sur 0 973.6 2.9 84
2018-09-14 23:00:00 20.4 34 Sur 47 Sudoeste 0 972.8 1.5 78
2018-09-14 22:00:00 20 31 Sur 57 Sur 0 972.1 2.2 77
2018-09-14 21:00:00 24.5 22 Sudoeste 36 Sudoeste 0 970.7 0.9 47
2018-09-14 20:00:00 25.3 15 Sudeste 52 Nordeste 0 971.3 1.4 52
2018-09-14 19:00:00 30.5 19 Sudoeste 31 Sudoeste 0 969.9 -0.7 28
2018-09-14 18:00:00 33 9 Noroeste 27 Norte 0 969.8 -1.5 23
2018-09-14 17:00:00 34.7 10 Oeste 22 Oeste 0 969.9 -2 20
2018-09-14 16:00:00 33.7 6 Nordeste 18 Noroeste 0 970.6 -1.8 22
2018-09-14 15:00:00 33.5 10 Oeste 20 Noroeste 0 971.3 -1.4 23
2018-09-14 14:00:00 33 5 Norte 13 Este 0 971.9 -0.4 24
2018-09-14 13:00:00 30.9 4 Noroeste 10 Norte 0 972.4 0.4 28
2018-09-14 12:00:00 28.9 4 Este 10 Norte 0 972.7 1 31
2018-09-14 11:00:00 26.2 3 Nordeste 8 Norte 0 972.3 1 36
2018-09-14 10:00:00 24.1 3 Norte 7 Sudoeste 0 972 1.1 41
2018-09-14 09:00:00 20.7 3 Sudoeste 6 Sudoeste 0 971.7 0.9 50
2018-09-14 08:00:00 20.9 2 Sudoeste 7 Oeste 0 971.3 0.3 48
2018-09-14 07:00:00 22.3 6 Oeste 8 Oeste 0 970.9 -0.5 42
2018-09-14 06:00:00 22.7 5 Oeste 8 Oeste 0 970.8 -0.8 42
2018-09-14 05:00:00 23.1 5 Oeste 9 Oeste 0 971 -0.8 41
2018-09-14 04:00:00 24.4 4 Noroeste 12 Oeste 0 971.4 -0.4 39
2018-09-14 03:00:00 25.3 9 Oeste 18 Oeste 0 971.6 0 37
2018-09-14 02:00:00 25.7 8 Oeste 15 Oeste 0 971.8 0.4 37
2018-09-14 01:00:00 26.2 8 Oeste 18 Oeste 0 971.8 0.7 36
2018-09-14 00:00:00 27.2 9 Oeste 22 Sudoeste 0 971.6 0.8 32
2018-09-13 23:00:00 26.1 9 Sudoeste 12 Sudoeste 0 971.4 0.5 34
2018-09-13 22:00:00 26.7 7 Sudoeste 10 Sudoeste 0 971.1 0.2 33
2018-09-13 21:00:00 27.9 7 Sudoeste 10 Sudoeste 0 970.8 -0.2 31
2018-09-13 20:00:00 31.9 4 Oeste 13 Oeste 0 970.9 -0.6 26
2018-09-13 19:00:00 33.4 7 Noroeste 15 Noroeste 0 970.9 -1.3 22
2018-09-13 18:00:00 34.2 6 Noroeste 16 Noroeste 0 971 -1.7 20
2018-09-13 17:00:00 33.8 6 Sudoeste 19 Nordeste 0 971.5 -2 21
2018-09-13 16:00:00 33.5 6 Sur 21 Norte 0 972.2 -1.9 22
2018-09-13 15:00:00 32.9 8 Nordeste 22 Norte 0 972.7 -1.6 24
2018-09-13 14:00:00 33 7 Norte 21 Norte 0 973.5 -0.7 24
2018-09-13 13:00:00 31.3 7 Norte 12 Nordeste 0 974.1 0.3 29
2018-09-13 12:00:00 29.2 4 Nordeste 10 Noroeste 0 974.3 0.6 32
2018-09-13 11:00:00 26.7 4 Norte 8 Norte 0 974.2 0.7 37
2018-09-13 10:00:00 25 4 Norte 5 Norte 0 973.8 0.5 42
2018-09-13 09:00:00 21.4 0 Calma 8 Sudoeste 0 973.7 0.5 52
2018-09-13 08:00:00 20.7 7 Sudoeste 10 Sudoeste 0 973.5 0 51
2018-09-13 07:00:00 21.3 6 Sudoeste 8 Sudoeste 0 973.3 -0.3 49
2018-09-13 06:00:00 20.9 5 Sudoeste 8 Sudoeste 0 973.2 -0.8 49
2018-09-13 05:00:00 21.5 6 Sudoeste 8 Sudoeste 0 973.5 -0.7 46
2018-09-13 04:00:00 21.5 2 Sudoeste 11 Sur 0 973.6 -0.9 44
2018-09-13 03:00:00 22.6 8 Sudoeste 17 Norte 0 974 -0.6 41
2018-09-13 02:00:00 24.1 6 Sudoeste 8 Sudoeste 0 974.2 -0.4 39
2018-09-13 01:00:00 24.1 5 Sudoeste 8 Sudoeste 0 974.5 0.3 39
2018-09-13 00:00:00 24.8 6 Sudoeste 8 Sudoeste 0 974.6 1 36
2018-09-12 23:00:00 25 6 Sudoeste 8 Sudoeste 0 974.6 1.1 39
2018-09-12 22:00:00 26.1 6 Sudoeste 8 Sudoeste 0 974.2 0.5 35
2018-09-12 21:00:00 28.3 5 Sudoeste 8 Oeste 0 973.6 -0.2 33
2018-09-12 20:00:00 32 3 Noroeste 10 Noroeste 0 973.5 -0.6 27
2018-09-12 19:00:00 32.5 6 Norte 18 Noroeste 0 973.7 -1 25
2018-09-12 18:00:00 33.8 6 Norte 12 Noroeste 0 973.8 -1.9 24
2018-09-12 17:00:00 32.9 7 Sur 18 Sur 0 974.1 -2.2 24
2018-09-12 16:00:00 32.6 11 Nordeste 21 Norte 0 974.7 -2.2 27
2018-09-12 15:00:00 32.1 9 Nordeste 18 Norte 0 975.7 -1.3 30
2018-09-12 14:00:00 30.6 6 Noroeste 14 Noroeste 0 976.3 -0.5 37
2018-09-12 13:00:00 29.4 7 Nordeste 17 Norte 0 976.9 0.5 41
2018-09-12 12:00:00 27.6 6 Nordeste 13 Nordeste 0 977 0.8 45
2018-09-12 11:00:00 25.9 6 Este 12 Este 0 976.8 1.3 50
2018-09-12 10:00:00 23.7 6 Este 13 Este 0 976.4 1.3 53
2018-09-12 09:00:00 20.8 5 Sudeste 9 Sudeste 0 976.2 1.1 60
2018-09-12 08:00:00 19 3 Sudeste 9 Sur 0 975.5 0.7 61
2018-09-12 07:00:00 20.1 6 Sudeste 8 Sudeste 0 975.1 0.6 54
2018-09-12 06:00:00 20.8 4 Sudeste 14 Sudeste 0 975.1 0.6 52
2018-09-12 05:00:00 21.5 8 Sudeste 12 Sur 0 974.8 0.1 49
2018-09-12 04:00:00 20.4 3 Sur 8 Sudoeste 0 974.5 -0.2 53
2018-09-12 03:00:00 21.8 4 Sudeste 10 Sudeste 0 974.5 -0.2 49
2018-09-12 02:00:00 22.3 7 Sudeste 9 Sudeste 0 974.7 0.2 46
2018-09-12 01:00:00 23.7 8 Sudeste 10 Sudeste 0 974.7 0.8 42
2018-09-12 00:00:00 24.6 8 Sudeste 10 Sur 0 974.7 1.3 40
2018-09-11 23:00:00 24.9 6 Sur 10 Sudeste 0 974.5 1.4 39
2018-09-11 22:00:00 26.4 6 Sudeste 10 Sudeste 0 973.9 0.9 35
2018-09-11 21:00:00 26.9 2 Sudoeste 8 Sudoeste 0 973.4 0.3 37
2018-09-11 20:00:00 30.5 4 Sudeste 20 Este 0 973.1 -0.6 30
2018-09-11 19:00:00 31.1 13 Este 24 Nordeste 0 973 -1.4 29
2018-09-11 18:00:00 31.6 9 Nordeste 22 Este 0 973.1 -2 28
2018-09-11 17:00:00 31.2 6 Sudeste 27 Este 0 973.7 -2.1 28
2018-09-11 16:00:00 31.1 10 Norte 25 Nordeste 0 974.4 -1.9 28
2018-09-11 15:00:00 30.3 10 Este 31 Nordeste 0 975.1 -1.7 30
2018-09-11 14:00:00 29.9 15 Este 40 Este 0 975.8 -0.9 31
2018-09-11 13:00:00 28.3 13 Este 27 Este 0 976.3 -0.5 36
2018-09-11 12:00:00 26.6 14 Este 26 Este 0 976.8 0.1 41
2018-09-11 11:00:00 24.6 19 Este 30 Este 0 976.7 0.4 49
2018-09-11 10:00:00 22.4 15 Este 23 Este 0 976.8 0.7 57
2018-09-11 09:00:00 20.2 3 Sudeste 9 Sudeste 0 976.7 1 65
2018-09-11 08:00:00 19.1 6 Sudeste 13 Sudeste 0 976.3 0.4 67
2018-09-11 07:00:00 19.3 6 Este 14 Este 0 976.1 0.5 62
2018-09-11 06:00:00 20.3 6 Este 14 Este 0 975.7 0.1 57
2018-09-11 05:00:00 19.4 4 Sudoeste 6 Sudoeste 0 975.9 0.2 57
2018-09-11 04:00:00 20.3 2 Sur 5 Sudeste 0 975.6 0 53
2018-09-11 03:00:00 20.8 2 Sur 5 Noroeste 0 975.6 -0.1 49
2018-09-11 02:00:00 21.7 6 Noroeste 11 Noroeste 0 975.7 0.1 43
2018-09-11 01:00:00 24 3 Sudeste 7 Este 0 975.6 0.6 40
2018-09-11 00:00:00 24.8 4 Este 15 Sudeste 0 975.7 1.4 33
2018-09-10 23:00:00 25.7 9 Sudeste 12 Sudeste 0 975.6 1.6 34
2018-09-10 22:00:00 25.1 4 Sudeste 11 Nordeste 0 975 1.1 35
2018-09-10 21:00:00 28.5 8 Nordeste 21 Nordeste 0 974.3 0.3 27
2018-09-10 20:00:00 30.3 13 Nordeste 27 Nordeste 0 974 -0.4 24
2018-09-10 19:00:00 31 11 Nordeste 27 Nordeste 0 973.9 -1.2 22
2018-09-10 18:00:00 31.3 14 Nordeste 28 Nordeste 0 974 -1.7 22
2018-09-10 17:00:00 31.2 15 Nordeste 25 Nordeste 0 974.4 -2 22
2018-09-10 16:00:00 30.9 9 Nordeste 27 Norte 0 975.1 -1.8 23
2018-09-10 15:00:00 30.6 12 Nordeste 38 Este 0 975.7 -1.3 25
2018-09-10 14:00:00 29.3 12 Este 22 Este 0 976.4 -0.4 30
2018-09-10 13:00:00 27.5 12 Este 21 Este 0 976.9 0.4 36
2018-09-10 12:00:00 26.1 11 Este 18 Este 0 977 1 37
2018-09-10 11:00:00 23.2 4 Norte 10 Este 0 976.8 1.4 42
2018-09-10 10:00:00 20.7 5 Este 8 Este 0 976.5 1.2 55
2018-09-10 09:00:00 17 2 Oeste 8 Sudeste 0 976 1.1 69
2018-09-10 08:00:00 16.6 3 Sudoeste 9 Sudoeste 0 975.4 0.5 65
2018-09-10 07:00:00 17.1 4 Sur 8 Sudoeste 0 975.3 0.5 65
2018-09-10 06:00:00 18 4 Sudoeste 12 Este 0 974.9 -0.2 64
2018-09-10 05:00:00 18.2 3 Sudoeste 11 Este 0 974.9 -0.3 61
2018-09-10 04:00:00 19.1 6 Sudeste 9 Sudeste 0 974.8 -0.3 59
2018-09-10 03:00:00 20.6 3 Oeste 11 Sudeste 0 975.1 0.3 53
2018-09-10 02:00:00 21.1 5 Sudeste 10 Sudeste 0 975.2 0.5 52
2018-09-10 01:00:00 20.9 2 Nordeste 10 Sudeste 0 975.1 0.9 51
2018-09-10 00:00:00 21.6 8 Sur 12 Sur 0 974.8 1.5 48
2018-09-09 23:00:00 21.7 2 Sur 6 Sudoeste 0 974.7 2 48
2018-09-09 22:00:00 22.7 5 Sudoeste 10 Sur 0 974.2 1.9 48
2018-09-09 21:00:00 24.9 5 Sur 10 Sudoeste 0 973.3 0.7 40
2018-09-09 20:00:00 26.3 4 Sur 13 Sur 0 972.7 0.4 39
2018-09-09 19:00:00 28 10 Sur 41 Sudeste 0 972.3 -0.5 35
2018-09-09 18:00:00 29.6 12 Nordeste 26 Este 0 972.6 -1 31
2018-09-09 17:00:00 28.7 14 Norte 25 Norte 0 972.3 -1.7 32
2018-09-09 16:00:00 28.1 8 Norte 25 Nordeste 0 972.8 -1.8 40
2018-09-09 15:00:00 28.3 9 Norte 21 Nordeste 0 973.6 -1.4 40
2018-09-09 14:00:00 27.5 8 Este 19 Este 0 974 -0.8 42
2018-09-09 13:00:00 25.8 9 Este 19 Este 0 974.6 0.3 47
2018-09-09 12:00:00 25 6 Este 14 Sudeste 0 975 0.7 45
2018-09-09 11:00:00 22.2 6 Nordeste 11 Nordeste 0 974.8 1.2 58
2018-09-09 10:00:00 19.1 5 Norte 13 Norte 0 974.3 1.3 79
2018-09-09 09:00:00 17.4 4 Este 7 Sudeste 0 974.3 1.5 83
2018-09-09 08:00:00 16.3 2 Oeste 10 Norte 0 973.6 0.7 77
2018-09-09 07:00:00 16.7 4 Oeste 10 Este 0 973 0.2 79
2018-09-09 06:00:00 17.3 4 Sur 7 Noroeste 0 972.8 0 83
2018-09-09 05:00:00 16.9 4 Sudoeste 8 Sudeste 0 972.9 0 85
2018-09-09 04:00:00 16.3 5 Sudoeste 8 Sudoeste 0 972.8 -0.1 87
2018-09-09 03:00:00 16.9 4 Oeste 9 Sudoeste 0 972.8 0.4 81
2018-09-09 02:00:00 18 2 Sudoeste 11 Sudeste 0 972.9 0.6 76
2018-09-09 01:00:00 19.6 5 Sudeste 19 Norte 0 972.9 1.4 70
2018-09-09 00:00:00 20.8 7 Sudoeste 12 Sur 0 972.4 2.5 60
2018-09-08 23:00:00 21 4 Oeste 21 Norte 0 972.3 3.3 62
2018-09-08 22:00:00 24.4 12 Noroeste 27 Oeste 0 971.5 2.8 50
2018-09-08 21:00:00 25.8 15 Oeste 26 Sudoeste 0 969.9 0.9 38
2018-09-08 20:00:00 27.9 12 Sur 27 Sur 0 969 -0.1 35
2018-09-08 19:00:00 29.2 14 Sudeste 26 Sudeste 0 968.7 -1 32
2018-09-08 18:00:00 29.8 12 Sur 26 Sur 0 969 -1.1 32
2018-09-08 17:00:00 29.2 12 Sur 27 Sudeste 0 969.1 -1 34
2018-09-08 16:00:00 29.3 15 Sur 29 Sur 0 969.7 -0.8 33
2018-09-08 15:00:00 27.8 13 Sur 24 Sudeste 0 970.1 -0.6 36
2018-09-08 14:00:00 28 14 Este 25 Nordeste 0 970.1 -0.3 34
2018-09-08 13:00:00 26.6 9 Este 17 Este 0 970.5 0.3 36
2018-09-08 12:00:00 24.6 10 Este 17 Este 0 970.7 0.6 47
2018-09-08 11:00:00 23.7 4 Este 12 Nordeste 0 970.4 1.1 48
2018-09-08 10:00:00 21.3 6 Nordeste 10 Nordeste 0 970.2 1.1 45
2018-09-08 09:00:00 19.4 7 Sudoeste 16 Norte 0 970.1 0.8 50
2018-09-08 08:00:00 18.7 3 Sudoeste 9 Sudoeste 0 969.3 0.2 51
2018-09-08 07:00:00 19.5 4 Sudoeste 6 Norte 0 969.1 0.4 50
2018-09-08 06:00:00 20.8 5 Este 13 Sur 0 969.3 0.5 43
2018-09-08 05:00:00 20.3 6 Este 14 Sudeste 0 969.1 0.4 45
2018-09-08 04:00:00 19.7 0 Calma 5 Sur 0 968.7 -0.1 46
2018-09-08 03:00:00 21.1 4 Sudoeste 22 Sudoeste 0 968.8 0.4 44
2018-09-08 02:00:00 22.1 14 Sudoeste 23 Sudoeste 0 968.7 0.9 41
2018-09-08 01:00:00 23.5 13 Sudoeste 27 Sudoeste 0 968.8 1.6 38
2018-09-08 00:00:00 24.1 14 Sudoeste 36 Oeste 0 968.4 1.9 40
2018-09-07 23:00:00 25.3 17 Sudoeste 35 Sur 0 967.8 2.1 33
2018-09-07 22:00:00 26.5 21 Sur 34 Sur 0 967.2 1.5 22
2018-09-07 21:00:00 27.9 19 Sur 30 Sur 0 966.5 0.7 22
2018-09-07 20:00:00 30 12 Sur 22 Sudeste 0 965.7 -0.4 25
2018-09-07 19:00:00 30.3 18 Sudeste 31 Sudeste 0 965.7 -0.7 23
2018-09-07 18:00:00 32.1 15 Sudeste 33 Este 0 965.8 -1.2 18
2018-09-07 17:00:00 31.6 14 Sudeste 35 Este 0 966.1 -1.4 20
2018-09-07 16:00:00 31.2 18 Sudeste 37 Sudeste 0 966.4 -2 23
2018-09-07 15:00:00 30.6 19 Sudeste 36 Sudeste 0 967 -1.8 22
2018-09-07 14:00:00 30 15 Este 31 Sudeste 0 967.5 -1.3 25
2018-09-07 13:00:00 28.2 12 Este 23 Este 0 968.4 -0.4 31
2018-09-07 12:00:00 26.2 8 Nordeste 21 Este 0 968.8 0.2 36
2018-09-07 11:00:00 23.9 13 Este 22 Este 0 968.8 0.6 42
2018-09-07 10:00:00 21.1 10 Este 14 Este 0 968.8 0.7 49
2018-09-07 09:00:00 19.2 5 Sudeste 8 Sudeste 0 968.6 0.5 58
2018-09-07 08:00:00 16.9 4 Sudeste 5 Sudeste 0 968.2 -0.1 65
2018-09-07 07:00:00 16.9 4 Sudeste 7 Sudeste 0 968.1 -0.3 64
2018-09-07 06:00:00 16.4 3 Sudoeste 6 Sudoeste 0 968.1 -0.5 67
2018-09-07 05:00:00 17.4 4 Este 6 Sudoeste 0 968.3 -0.2 61
2018-09-07 04:00:00 18.6 5 Sudoeste 8 Sudoeste 0 968.4 -0.3 59
2018-09-07 03:00:00 19.1 4 Sudoeste 8 Oeste 0 968.6 -0.1 54
2018-09-07 02:00:00 20.3 4 Sudoeste 12 Sudoeste 0 968.5 -0.5 48
2018-09-07 01:00:00 20 6 Sudoeste 8 Sudoeste 0 968.7 0.3 50
2018-09-07 00:00:00 21.7 5 Sudoeste 13 Sudoeste 0 968.7 0.8 41
2018-09-06 23:00:00 22.3 9 Sudoeste 15 Nordeste 0 969 1.4 40
2018-09-06 22:00:00 24.6 12 Sudoeste 19 Sudoeste 0 968.4 0.8 33
2018-09-06 21:00:00 25.4 9 Sudoeste 14 Sudoeste 0 967.9 0.1 32
2018-09-06 20:00:00 28.4 5 Noroeste 13 Noroeste 0 967.6 -0.5 27
2018-09-06 19:00:00 29.3 5 Oeste 19 Noroeste 0 967.6 -1.1 26
2018-09-06 18:00:00 28.8 9 Oeste 18 Oeste 0 967.8 -1.6 27
2018-09-06 17:00:00 28.9 8 Sudoeste 19 Sudoeste 0 968.1 -1.6 28
2018-09-06 16:00:00 27.6 13 Sudoeste 21 Sudoeste 0 968.7 -1.5 31
2018-09-06 15:00:00 26.7 10 Sudoeste 22 Sudoeste 0 969.4 -1.1 35
2018-09-06 14:00:00 25.9 11 Sur 19 Oeste 0 969.7 -0.7 41
2018-09-06 13:00:00 24 4 Sudeste 12 Sur 0 970.2 -0.1 46
2018-09-06 12:00:00 21.2 6 Sudoeste 19 Sudoeste 0 970.5 0.7 61
2018-09-06 11:00:00 19.8 5 Sur 14 Sudoeste 0 970.4 1.2 69
2018-09-06 10:00:00 17.1 9 Sudoeste 15 Sur 0 970.3 1.5 80
2018-09-06 09:00:00 17.1 3 Nordeste 16 Sur 0 969.8 1 79
2018-09-06 08:00:00 16.7 12 Sudoeste 18 Sudoeste 0 969.2 0.3 80
2018-09-06 07:00:00 16.8 4 Nordeste 19 Sudoeste 0 968.8 -0.3 79
2018-09-06 06:00:00 17.6 15 Sudoeste 20 Oeste 0 968.8 -0.5 76
2018-09-06 05:00:00 17.8 17 Sudoeste 22 Sudoeste 0 968.9 -0.5 75
2018-09-06 04:00:00 18.3 14 Sudoeste 20 Sudoeste 0 969.1 -0.2 73
2018-09-06 03:00:00 18.9 12 Oeste 21 Oeste 0 969.3 -0.2 71
2018-09-06 02:00:00 19.9 11 Oeste 18 Sudoeste 0 969.4 -0.1 66
2018-09-06 01:00:00 20.7 9 Oeste 17 Oeste 0 969.3 0.2 61
2018-09-06 00:00:00 21.7 10 Oeste 21 Oeste 0 969.5 1 56
2018-09-05 23:00:00 22.1 10 Oeste 21 Noroeste 0 969.5 1.1 56
2018-09-05 22:00:00 22.8 15 Oeste 31 Oeste 0 969.1 0.7 51
2018-09-05 21:00:00 23 9 Sudoeste 19 Oeste 0 968.5 0 47
2018-09-05 20:00:00 24.3 13 Sudoeste 24 Sudoeste 0 968.4 -0.3 43
2018-09-05 19:00:00 24.6 14 Sudoeste 24 Sudoeste 0 968.4 -0.9 42
2018-09-05 18:00:00 25.1 13 Sudoeste 30 Sudoeste 0 968.5 -1.3 39
2018-09-05 17:00:00 25.2 11 Oeste 23 Sudoeste 0 968.7 -1.4 41
2018-09-05 16:00:00 25.2 12 Sudoeste 30 Oeste 0 969.3 -1.3 44
2018-09-05 15:00:00 24 8 Sudoeste 24 Sur 0 969.8 -0.9 49
2018-09-05 14:00:00 23.7 14 Sudoeste 26 Sur 0 970.1 -0.4 51
2018-09-05 13:00:00 22.9 12 Sur 26 Sudoeste 0 970.6 0.4 56
2018-09-05 12:00:00 21.8 14 Sudoeste 25 Sudoeste 0 970.7 0.9 65
2018-09-05 11:00:00 20.7 10 Sudoeste 30 Sudoeste 0 970.5 1.2 71
2018-09-05 10:00:00 19.6 17 Sudoeste 28 Sudoeste 0 970.2 1.3 76
2018-09-05 09:00:00 19 20 Sudoeste 30 Sudoeste 0 969.8 1.3 78
2018-09-05 08:00:00 18.7 21 Sudoeste 30 Sudoeste 0 969.3 0.8 79
2018-09-05 07:00:00 18.6 18 Sudoeste 34 Sudoeste 0 968.9 0.6 80
2018-09-05 06:00:00 18.7 19 Sudoeste 27 Sudoeste 0 968.5 0.1 79
2018-09-05 05:00:00 18.5 18 Sudoeste 26 Sudoeste 0 968.5 0.1 74
2018-09-05 04:00:00 19.2 17 Sudoeste 25 Sudoeste 0 968.3 0 65
2018-09-05 03:00:00 20 12 Sudoeste 19 Sudoeste 0 968.4 0.2 60
2018-09-05 02:00:00 21.3 13 Sudoeste 22 Sudoeste 0 968.4 0.4 54
2018-09-05 01:00:00 20.9 13 Sudoeste 19 Sudoeste 0 968.3 0.6 56
2018-09-05 00:00:00 21.8 10 Sudoeste 17 Sudoeste 0 968.2 1.1 54
2018-09-04 23:00:00 21.3 9 Sudoeste 15 Sudoeste 0 968 1.2 56
2018-09-04 22:00:00 22.7 8 Sudoeste 21 Oeste 0 967.7 1.1 51
2018-09-04 21:00:00 23.7 10 Oeste 24 Sudoeste 0 967.1 0.7 48
2018-09-04 20:00:00 25.2 16 Sudoeste 25 Sudoeste 0 966.8 0.2 45
2018-09-04 19:00:00 26.8 16 Sudoeste 27 Sudoeste 0 966.6 -0.5 40
2018-09-04 18:00:00 27.6 11 Sudoeste 27 Oeste 0 966.4 -1 38
2018-09-04 17:00:00 27.6 9 Sur 26 Sudoeste 0 966.6 -1.1 36
2018-09-04 16:00:00 27.2 12 Sudoeste 33 Sur 0 967.1 -1.1 41
2018-09-04 15:00:00 27 10 Sur 29 Sudoeste 0 967.4 -1.1 44
2018-09-04 14:00:00 25.8 9 Sur 22 Sur 0 967.7 -0.6 48
2018-09-04 13:00:00 24 10 Oeste 22 Oeste 0 968.2 0.1 53
2018-09-04 12:00:00 23.2 10 Sudoeste 26 Oeste 0 968.5 0.6 56
2018-09-04 11:00:00 21.5 17 Sudoeste 30 Sudoeste 0 968.3 0.9 61
2018-09-04 10:00:00 19.3 15 Sudoeste 30 Sudoeste 0 968.1 1.2 72
2018-09-04 09:00:00 18.8 4 Nordeste 27 Sur 0 967.9 1.2 73
2018-09-04 08:00:00 17.7 14 Sur 21 Sur 0 967.4 0.6 76
2018-09-04 07:00:00 18.5 12 Sur 23 Sur 0 966.9 0 74
2018-09-04 06:00:00 19 12 Sur 24 Sudoeste 0 966.7 -0.2 72
2018-09-04 05:00:00 19.2 13 Sudoeste 24 Sudoeste 0 966.8 -0.2 71
2018-09-04 04:00:00 20.2 6 Noroeste 20 Oeste 0 966.9 0.1 65
2018-09-04 03:00:00 21.1 11 Oeste 17 Oeste 0 966.9 0 61
2018-09-04 02:00:00 21.8 5 Oeste 19 Oeste 0 967 0.4 57
2018-09-04 01:00:00 22.3 5 Oeste 19 Oeste 0 966.8 0.5 53
2018-09-04 00:00:00 23.3 10 Oeste 21 Sudoeste 0 966.9 1 53
2018-09-03 23:00:00 24.4 14 Sudoeste 19 Sudoeste 0 966.6 1 51
2018-09-03 22:00:00 24.9 15 Sudoeste 23 Sudoeste 0 966.3 0.6 49
2018-09-03 21:00:00 25.8 11 Sur 23 Sur 0 965.9 0.1 47
2018-09-03 20:00:00 27.3 10 Sudoeste 23 Oeste 0 965.6 -0.5 43
2018-09-03 19:00:00 28.2 11 Oeste 26 Oeste 0 965.7 -0.9 41
2018-09-03 18:00:00 28.5 14 Oeste 28 Oeste 0 965.8 -1 43
2018-09-03 17:00:00 28.5 11 Oeste 26 Sur 0 966.1 -1.1 45
2018-09-03 16:00:00 27.8 12 Sudoeste 24 Sur 0 966.6 -1.2 49
2018-09-03 15:00:00 27.8 15 Sur 23 Sudoeste 0 966.8 -1.2 49
2018-09-03 14:00:00 26.3 6 Oeste 21 Sur 0 967.2 -0.7 56
2018-09-03 13:00:00 25.1 9 Sudoeste 18 Sudoeste 0 967.8 0.5 62
2018-09-03 12:00:00 23.3 13 Sudoeste 21 Sudoeste 0 968 0.7 69
2018-09-03 11:00:00 23.8 10 Sudoeste 25 Sur 0 967.9 0.5 69
2018-09-03 10:00:00 22.2 18 Sudoeste 36 Sur 0 967.3 0.5 78
2018-09-03 09:00:00 21.5 17 Sur 23 Sur 0 967.3 0.8 83
2018-09-03 08:00:00 21.2 9 Sur 27 Sudoeste 0 967.4 1 83
2018-09-03 07:00:00 21.8 15 Sur 33 Sur 0 966.8 0.5 79
2018-09-03 06:00:00 22.2 19 Sur 32 Sudoeste 0 966.5 0.1 75
2018-09-03 05:00:00 23.1 18 Sudoeste 33 Sudoeste 0 966.4 0.1 70
2018-09-03 04:00:00 23.5 24 Sudoeste 39 Sudoeste 0 966.3 0 68
2018-09-03 03:00:00 25 24 Sudoeste 42 Sudoeste 0 966.4 0.2 61
2018-09-03 02:00:00 26.8 26 Sudoeste 36 Sudoeste 0 966.3 0.1 56
2018-09-03 01:00:00 28.4 18 Sudoeste 37 Sudoeste 0 966.3 0.5 45
2018-09-03 00:00:00 29.9 22 Sudoeste 34 Sudoeste 0 966.2 0.5 37
2018-09-02 23:00:00 31 12 Sudoeste 29 Sur 0 966.2 0.6 33
2018-09-02 22:00:00 32.2 17 Sur 27 Sur 0 965.8 -0.2 27
2018-09-02 21:00:00 33.3 8 Sur 22 Sur 0 965.7 -0.7 25
2018-09-02 20:00:00 35.2 10 Sudeste 20 Sudeste 0 965.6 -1.3 20
2018-09-02 19:00:00 36.5 9 Sur 26 Sur 0 966 -1.5 18
2018-09-02 18:00:00 37.2 14 Sur 30 Sur 0 966.4 -2 17
2018-09-02 17:00:00 37.3 11 Sur 27 Sudeste 0 966.9 -2.3 19
2018-09-02 16:00:00 36.7 16 Sudeste 30 Este 0 967.5 -2.4 19
2018-09-02 15:00:00 35.3 10 Este 23 Este 0 968.4 -2.3 24
2018-09-02 14:00:00 34 11 Este 20 Este 0 969.2 -1.5 27
2018-09-02 13:00:00 32.4 8 Este 23 Este 0 969.9 -0.7 30
2018-09-02 12:00:00 30.5 5 Este 13 Nordeste 0 970.7 0.5 34
2018-09-02 11:00:00 28 5 Nordeste 10 Nordeste 0 970.7 1.1 43
2018-09-02 10:00:00 27 5 Nordeste 11 Nordeste 0 970.6 1.6 43
2018-09-02 09:00:00 24.8 7 Este 19 Sur 0 970.2 1.5 46
2018-09-02 08:00:00 25.2 15 Sur 30 Sudoeste 0 969.6 1 44
2018-09-02 07:00:00 26.1 10 Sudoeste 25 Sudoeste 0 969 0.3 42
2018-09-02 06:00:00 27 19 Sudoeste 30 Sudoeste 0 968.7 -0.1 38
2018-09-02 05:00:00 27.6 21 Sudoeste 30 Sudoeste 0 968.6 -0.1 38
2018-09-02 04:00:00 27.9 19 Sudoeste 27 Sudoeste 0 968.7 0.1 37
2018-09-02 03:00:00 27.6 16 Sudoeste 27 Sudoeste 0 968.8 0.3 38
2018-09-02 02:00:00 28.4 21 Sudoeste 35 Sudoeste 0 968.7 0.2 37
2018-09-02 01:00:00 29.7 22 Sudoeste 33 Sudoeste 0 968.6 0.3 34
2018-09-02 00:00:00 28 6 Sur 16 Norte 0 968.5 0.5 24
2018-09-01 23:00:00 28.4 5 Sur 9 Sur 0 968.5 0.6 25
2018-09-01 22:00:00 29.2 5 Sur 8 Sur 0 968.3 0.2 24
2018-09-01 21:00:00 32.2 7 Sur 11 Sudeste 0 968 -0.3 21
2018-09-01 20:00:00 36 8 Sur 20 Sudeste 0 967.9 -0.7 16
2018-09-01 19:00:00 37.1 13 Sudeste 25 Sudeste 0 968.1 -1 12
2018-09-01 18:00:00 37.5 13 Sudeste 27 Sudeste 0 968.3 -1.5 14
2018-09-01 17:00:00 36.8 13 Sur 25 Sudoeste 0 968.6 -1.7 13
2018-09-01 16:00:00 36.3 11 Sudeste 22 Sudeste 0 969.1 -1.8 17
2018-09-01 15:00:00 35.9 10 Norte 24 Este 0 969.8 -1.5 19
2018-09-01 14:00:00 36 8 Sudeste 22 Sudeste 0 970.3 -1 19
2018-09-01 13:00:00 33.9 10 Este 21 Este 0 970.9 -0.2 22
2018-09-01 12:00:00 32.3 10 Este 22 Este 0 971.3 0.6 24
2018-09-01 11:00:00 30.1 13 Este 26 Este 0 971.3 0.9 26
2018-09-01 10:00:00 27.3 7 Este 12 Este 0 971.1 1.1 29
2018-09-01 09:00:00 24.6 5 Sudeste 11 Sudeste 0 970.7 0.8 34
2018-09-01 08:00:00 22.9 4 Sur 11 Este 0 970.4 0.5 40
2018-09-01 07:00:00 21.9 2 Sur 7 Sudeste 0 970 0 43
2018-09-01 06:00:00 23 5 Sudeste 9 Sur 0 969.9 0.3 37
2018-09-01 05:00:00 21.7 3 Sudoeste 6 Sur 0 969.9 0.1 39
2018-09-01 04:00:00 23 3 Oeste 8 Oeste 0 970 0.1 36
2018-09-01 03:00:00 24.2 5 Sur 8 Sudoeste 0 969.6 -0.1 34
2018-09-01 02:00:00 24.4 5 Sudoeste 9 Sudoeste 0 969.8 -0.1 35
2018-09-01 01:00:00 25.8 5 Oeste 17 Noroeste 0 969.9 0.4 31
2018-09-01 00:00:00 26.8 6 Sudoeste 9 Sudoeste 0 969.7 0.7 28
2018-08-31 23:00:00 27.1 7 Sudoeste 8 Sudoeste 0 969.9 1.2 29
2018-08-31 22:00:00 29.3 3 Sur 8 Sudoeste 0 969.5 0.7 25
2018-08-31 21:00:00 32 3 Norte 11 Norte 0 969 0 22
2018-08-31 20:00:00 35.4 8 Norte 17 Norte 0 968.7 -0.8 16
2018-08-31 19:00:00 36.5 4 Nordeste 18 Este 0 968.8 -1.3 14
2018-08-31 18:00:00 36.6 7 Nordeste 17 Este 0 969 -1.6 14
2018-08-31 17:00:00 36.6 9 Este 18 Nordeste 0 969.5 -1.4 14
2018-08-31 16:00:00 35.9 7 Nordeste 19 Sudeste 0 970.1 -1.2 15
2018-08-31 15:00:00 35.9 10 Este 23 Sudeste 0 970.6 -1.1 17
2018-08-31 14:00:00 35 6 Sur 15 Sur 0 970.9 -1 18
2018-08-31 13:00:00 33.2 6 Norte 11 Norte 0 971.3 -0.4 21
2018-08-31 12:00:00 31.3 5 Este 12 Este 0 971.7 0.4 25
2018-08-31 11:00:00 28 4 Nordeste 8 Norte 0 971.9 0.9 31
2018-08-31 10:00:00 24.8 0 Calma 4 Noroeste 0 971.7 1.3 39
2018-08-31 09:00:00 21.2 0 Calma 5 Sudoeste 0 971.3 1.1 49
2018-08-31 08:00:00 19.8 3 Sudoeste 4 Sudoeste 0 971 0.6 51
2018-08-31 07:00:00 21.3 3 Sur 9 Sudoeste 0 970.4 0.1 44
2018-08-31 06:00:00 21.5 6 Sudoeste 8 Sudoeste 0 970.2 -0.6 44
2018-08-31 05:00:00 22.3 5 Sudoeste 10 Sudoeste 0 970.4 -0.7 44
2018-08-31 04:00:00 23.4 6 Sudoeste 10 Sudoeste 0 970.3 -0.6 41
2018-08-31 03:00:00 23.8 7 Sudoeste 9 Sudoeste 0 970.8 -0.2 41
2018-08-31 02:00:00 24.5 3 Sudoeste 8 Sudoeste 0 971.1 0 37
2018-08-31 01:00:00 26.6 3 Oeste 15 Sudoeste 0 970.9 0.3 31
2018-08-31 00:00:00 27.8 6 Sudoeste 17 Sudoeste 0 971 0.7 30
2018-08-30 23:00:00 27.7 12 Sudoeste 16 Sudoeste 0 971.1 1 29
2018-08-30 22:00:00 27.1 7 Sudoeste 11 Sudoeste 0 970.6 0.4 31
2018-08-30 21:00:00 29.4 7 Sudoeste 9 Sudoeste 0 970.3 0 29
2018-08-30 20:00:00 34.1 6 Noroeste 11 Oeste 0 970.1 -0.6 19
2018-08-30 19:00:00 34.9 6 Oeste 18 Nordeste 0 970.2 -0.9 18
2018-08-30 18:00:00 34.9 6 Norte 18 Nordeste 0 970.3 -1.3 19
2018-08-30 17:00:00 34.8 7 Este 22 Nordeste 0 970.7 -1.4 19
2018-08-30 16:00:00 34.3 9 Noroeste 22 Sudeste 0 971.1 -1.4 21
2018-08-30 15:00:00 33.5 10 Este 22 Este 0 971.6 -1.3 23
2018-08-30 14:00:00 32.4 8 Noroeste 19 Noroeste 0 972.1 -0.8 26
2018-08-30 13:00:00 30.8 5 Nordeste 13 Nordeste 0 972.5 0 29
2018-08-30 12:00:00 28.1 7 Nordeste 14 Nordeste 0 972.9 0.7 34
2018-08-30 11:00:00 25.2 4 Nordeste 10 Nordeste 0 972.9 1.2 44
2018-08-30 10:00:00 23.8 3 Este 6 Nordeste 0 972.5 0.9 47
2018-08-30 09:00:00 19.5 3 Sudeste 8 Sudeste 0 972.2 0.9 61
2018-08-30 08:00:00 17.7 3 Sudoeste 10 Sudoeste 0 971.7 0.3 67
2018-08-30 07:00:00 19.2 3 Sur 8 Sudoeste 0 971.6 0.1 61
2018-08-30 06:00:00 20.7 6 Oeste 9 Noroeste 0 971.3 -0.4 56
2018-08-30 05:00:00 21.6 6 Sudoeste 10 Oeste 0 971.4 -0.3 53
2018-08-30 04:00:00 22.2 6 Oeste 16 Oeste 0 971.5 -0.4 51
2018-08-30 03:00:00 23.7 10 Oeste 18 Oeste 0 971.7 -0.1 47
2018-08-30 02:00:00 24.6 10 Oeste 20 Oeste 0 971.7 0.2 45
2018-08-30 01:00:00 24.9 10 Oeste 26 Noroeste 0 971.9 0.7 43
2018-08-30 00:00:00 25.4 13 Oeste 28 Oeste 0 971.8 1 44
2018-08-29 23:00:00 25.9 10 Oeste 14 Oeste 0 971.5 0.7 34
2018-08-29 22:00:00 25.2 7 Sudoeste 9 Sudoeste 0 971.2 0.4 35
2018-08-29 21:00:00 28 6 Sudoeste 9 Noroeste 0 970.8 0 30
2018-08-29 20:00:00 31 6 Noroeste 17 Norte 0 970.8 -0.4 24
2018-08-29 19:00:00 31.3 13 Norte 21 Noroeste 0 970.8 -0.8 24
2018-08-29 18:00:00 32 9 Noroeste 22 Noroeste 0 970.8 -1 24
2018-08-29 17:00:00 31.5 9 Norte 16 Noroeste 0 971.2 -1.1 27
2018-08-29 16:00:00 30.4 9 Noroeste 19 Norte 0 971.6 -1.2 31
2018-08-29 15:00:00 29 9 Noroeste 16 Norte 0 971.8 -1.5 39
2018-08-29 14:00:00 28.1 5 Este 16 Noroeste 0 972.3 -0.9 43
2018-08-29 13:00:00 25.1 6 Noroeste 23 Noroeste 0 972.8 0.1 52
2018-08-29 12:00:00 23 6 Oeste 15 Oeste 0 973.3 0.8 60
2018-08-29 11:00:00 21 7 Sudoeste 13 Sudoeste 0 973.2 1.4 68
2018-08-29 10:00:00 19.3 7 Oeste 19 Sudoeste 0 972.7 1.2 73
2018-08-29 09:00:00 17.5 15 Sudoeste 20 Sudoeste 0 972.5 1.1 83
2018-08-29 08:00:00 16.7 13 Sudoeste 21 Sudoeste 0 971.8 0.6 86
2018-08-29 07:00:00 16.7 12 Sudoeste 22 Sudoeste 0 971.5 0.4 86
2018-08-29 06:00:00 17.2 18 Sudoeste 27 Sudoeste 0 971.4 0.3 85
2018-08-29 05:00:00 17.1 19 Sudoeste 28 Sudoeste 0 971.2 0.2 86
2018-08-29 04:00:00 17.7 11 Sudoeste 27 Sudoeste 0 971.1 0.3 83
2018-08-29 03:00:00 18.6 18 Sudoeste 30 Sudoeste 0 971.1 0.1 77
2018-08-29 02:00:00 19 14 Sudoeste 23 Oeste 0 971 0.3 76
2018-08-29 01:00:00 19.9 17 Sudoeste 26 Oeste 0 970.8 0.8 72
2018-08-29 00:00:00 20.7 13 Oeste 24 Oeste 0 971 1.5 65
2018-08-28 23:00:00 22.8 10 Oeste 33 Sudoeste 0 970.7 1.8 54
2018-08-28 22:00:00 24.6 15 Oeste 32 Oeste 0 970 1 46
2018-08-28 21:00:00 28.1 14 Oeste 26 Oeste 0 969.5 0.2 30
2018-08-28 20:00:00 30.7 10 Oeste 23 Sudoeste 0 968.9 -0.6 20
2018-08-28 19:00:00 31.7 12 Oeste 29 Oeste 0 969 -0.9 17
2018-08-28 18:00:00 31.8 15 Sudoeste 30 Oeste 0 969.3 -1 20
2018-08-28 17:00:00 31.6 14 Oeste 29 Sudoeste 0 969.5 -1.2 21
2018-08-28 16:00:00 30.7 15 Sudoeste 27 Sudoeste 0 969.9 -1 36
2018-08-28 15:00:00 29.7 16 Sur 28 Sur 0 970.3 -0.5 43
2018-08-28 14:00:00 28.8 13 Sudoeste 26 Sudoeste 0 970.7 0.3 46
2018-08-28 13:00:00 27.5 8 Sudoeste 23 Sudoeste 0 970.9 1 51
2018-08-28 12:00:00 26.7 14 Sudoeste 27 Sur 0 970.8 0.9 54
2018-08-28 11:00:00 25 11 Sudoeste 32 Sur 0 970.4 1.2 62
2018-08-28 10:00:00 23 19 Sur 29 Sudoeste 0 969.9 1.1 70
2018-08-28 09:00:00 21.9 10 Sudoeste 28 Sudoeste 0 969.9 1.1 75
2018-08-28 08:00:00 21 19 Sur 27 Sudoeste 0 969.2 0.9 76
2018-08-28 07:00:00 21.7 13 Sudoeste 19 Sudoeste 0 968.8 0.4 71
2018-08-28 06:00:00 22.5 13 Sur 29 Sur 0 968.8 0.7 63
2018-08-28 05:00:00 23.3 18 Sudoeste 33 Sur 0 968.3 -0.1 55
2018-08-28 04:00:00 25.3 7 Sudeste 39 Sur 0 968.4 0.7 43
2018-08-28 03:00:00 26.8 13 Sudeste 45 Sur 0 968.1 1.1 39
2018-08-28 02:00:00 27.5 20 Sur 45 Sur 0 968.4 1.6 36
2018-08-28 01:00:00 29 19 Sur 46 Sudoeste 0 967.7 1.2 33
2018-08-28 00:00:00 31.7 24 Sur 40 Sur 0 967 0.6 22
2018-08-27 23:00:00 31.4 15 Sudeste 23 Sur 0 966.8 0.4 19
2018-08-27 22:00:00 29.3 4 Sur 14 Sur 0 966.5 -0.3 24
2018-08-27 21:00:00 31.8 5 Sur 17 Nordeste 0 966.4 -0.5 19
2018-08-27 20:00:00 35.3 9 Nordeste 22 Este 0 966.4 -0.8 14
2018-08-27 19:00:00 36 10 Nordeste 23 Este 0 966.8 -0.9 14
2018-08-27 18:00:00 36.5 14 Nordeste 24 Norte 0 966.9 -2.5 13
2018-08-27 17:00:00 35.8 12 Norte 26 Nordeste 0 967.2 -2.1 14
2018-08-27 16:00:00 34 11 Este 22 Sudeste 0 967.7 -1.5 16
2018-08-27 15:00:00 33.6 4 Oeste 27 Oeste 0 969.4 0.5 15
2018-08-27 14:00:00 35 19 Sudeste 28 Sudeste 0 969.3 -0.1 12
2018-08-27 13:00:00 31.8 7 Noroeste 13 Oeste 0 969.2 0.2 16
2018-08-27 12:00:00 32.4 8 Este 18 Nordeste 0 968.9 0.5 13
2018-08-27 11:00:00 29.3 4 Norte 7 Norte 0 969.4 1.8 22
2018-08-27 10:00:00 25.7 4 Este 5 Sudeste 0 969 1.7 28
2018-08-27 09:00:00 20.7 2 Norte 4 Oeste 0 968.4 0.8 39
2018-08-27 08:00:00 17.5 2 Oeste 5 Sudoeste 0 967.6 0 49
2018-08-27 07:00:00 19.2 3 Sudoeste 5 Sudoeste 0 967.3 -0.6 48
2018-08-27 06:00:00 19.5 2 Sur 4 Este 0 967.6 -0.6 48
2018-08-27 05:00:00 20.9 4 Sudeste 9 Sudoeste 0 967.6 -0.7 42
2018-08-27 04:00:00 22.8 8 Sudoeste 10 Sudoeste 0 967.9 -0.6 41
2018-08-27 03:00:00 22.9 6 Sudoeste 8 Sudoeste 0 968.2 -0.1 41
2018-08-27 02:00:00 24.7 6 Sudoeste 9 Oeste 0 968.3 0 35
2018-08-27 01:00:00 25.3 6 Oeste 11 Oeste 0 968.5 0.7 23
2018-08-27 00:00:00 25.3 7 Sudoeste 11 Oeste 0 968.3 0.8 19
2018-08-26 23:00:00 28.3 8 Oeste 21 Sudoeste 0 968.3 0.9 14
2018-08-26 22:00:00 27.3 12 Sudoeste 14 Sudoeste 0 967.8 0.3 16
2018-08-26 21:00:00 29.7 8 Sudoeste 14 Sudoeste 0 967.5 0.1 15
2018-08-26 20:00:00 35 8 Oeste 15 Noroeste 0 967.4 -0.3 8
2018-08-26 19:00:00 36 6 Oeste 22 Oeste 0 967.5 -0.7 8
2018-08-26 18:00:00 36.1 12 Sur 27 Oeste 0 967.4 -1.4 8
2018-08-26 17:00:00 35.6 15 Oeste 29 Sudoeste 0 967.7 -1.4 11
2018-08-26 16:00:00 35.1 14 Oeste 27 Sudoeste 0 968.2 -1.4 11
2018-08-26 15:00:00 34.8 14 Sudoeste 33 Oeste 0 968.8 -1.1 13
2018-08-26 14:00:00 33.3 5 Noroeste 18 Este 0 969.1 -0.7 14
2018-08-26 13:00:00 31.4 6 Norte 13 Norte 0 969.6 0.2 16
2018-08-26 12:00:00 29 6 Este 11 Este 0 969.9 0.8 19
2018-08-26 11:00:00 25.8 5 Nordeste 10 Norte 0 969.8 1.1 25
2018-08-26 10:00:00 22.3 3 Norte 5 Norte 0 969.4 1.1 34
2018-08-26 09:00:00 18.8 2 Noroeste 4 Norte 0 969.1 0.9 44
2018-08-26 08:00:00 16.6 3 Oeste 7 Sudoeste 0 968.7 0.7 48
2018-08-26 07:00:00 18.5 6 Sudoeste 9 Sudoeste 0 968.3 0.1 42
2018-08-26 06:00:00 19.1 5 Sudoeste 8 Sudoeste 0 968.2 -0.1 40
2018-08-26 05:00:00 19.7 5 Sudoeste 8 Sudoeste 0 968 -0.5 38
2018-08-26 04:00:00 20.5 6 Sudoeste 10 Sudoeste 0 968.2 -0.2 36
2018-08-26 03:00:00 21.8 5 Sudoeste 9 Sudoeste 0 968.3 0 33
2018-08-26 02:00:00 22.2 6 Sudoeste 9 Sudoeste 0 968.5 0.4 32
2018-08-26 01:00:00 24 6 Sudoeste 10 Oeste 0 968.4 0.8 28
2018-08-26 00:00:00 24.7 7 Oeste 10 Sudoeste 0 968.3 1.1 24
2018-08-25 23:00:00 25.7 7 Oeste 9 Oeste 0 968.1 1.2 20
2018-08-25 22:00:00 27.3 5 Oeste 13 Noroeste 0 967.6 0.7 16
2018-08-25 21:00:00 30.9 8 Noroeste 21 Noroeste 0 967.2 0.1 11
2018-08-25 20:00:00 33.2 14 Noroeste 26 Noroeste 0 966.9 -0.7 9
2018-08-25 19:00:00 34.4 15 Noroeste 30 Noroeste 0 966.9 -1.2 7
2018-08-25 18:00:00 34.9 12 Noroeste 30 Oeste 0 967.1 -1.7 7
2018-08-25 17:00:00 35.2 14 Oeste 27 Noroeste 0 967.6 -1.8 9
2018-08-25 16:00:00 34.4 11 Oeste 27 Oeste 0 968.1 -1.9 10
2018-08-25 15:00:00 33.6 7 Noroeste 21 Noroeste 0 968.8 -1.5 13
2018-08-25 14:00:00 32.3 6 Nordeste 16 Nordeste 0 969.4 -1.2 17
2018-08-25 13:00:00 30.9 5 Norte 18 Norte 0 970 -0.5 20
2018-08-25 12:00:00 28.8 7 Nordeste 19 Nordeste 0 970.3 0.1 23
2018-08-25 11:00:00 26.2 7 Norte 15 Nordeste 0 970.6 0.6 26
2018-08-25 10:00:00 23.8 5 Norte 10 Norte 0 970.5 0.6 31
2018-08-25 09:00:00 22.3 3 Sudoeste 7 Sudoeste 0 970.2 0.2 33
2018-08-25 08:00:00 20.1 5 Oeste 8 Sudoeste 0 970 -0.2 37
2018-08-25 07:00:00 21.2 4 Oeste 9 Oeste 0 969.9 -0.5 33
2018-08-25 06:00:00 21 6 Oeste 8 Oeste 0 970 -0.6 33
2018-08-25 05:00:00 21.6 6 Oeste 7 Oeste 0 970.2 -0.7 31
2018-08-25 04:00:00 21.8 5 Sudoeste 9 Sudoeste 0 970.4 -0.5 28
2018-08-25 03:00:00 23.4 6 Sudoeste 9 Sudoeste 0 970.6 0 24
2018-08-25 02:00:00 24.4 6 Oeste 9 Oeste 0 970.9 0.5 23
2018-08-25 01:00:00 25.1 5 Sudoeste 8 Oeste 0 970.9 0.7 21
2018-08-25 00:00:00 25.4 6 Oeste 11 Noroeste 0 970.6 1 19
2018-08-24 23:00:00 26.8 5 Sudoeste 8 Oeste 0 970.4 0.8 19
2018-08-24 22:00:00 28.9 5 Oeste 9 Norte 0 970.2 0.5 15
2018-08-24 21:00:00 32.6 6 Norte 23 Noroeste 0 969.6 -0.4 12
2018-08-24 20:00:00 34.8 12 Norte 24 Noroeste 0 969.6 -0.8 11
2018-08-24 19:00:00 35.7 11 Norte 29 Norte 0 969.7 -1.5 12
2018-08-24 18:00:00 35.9 14 Noroeste 27 Noroeste 0 970 -1.6 13
2018-08-24 17:00:00 35.7 11 Norte 28 Noroeste 0 970.4 -1.7 15
2018-08-24 16:00:00 35.6 12 Norte 27 Norte 0 971.2 -1.3 16
2018-08-24 15:00:00 34.7 9 Norte 22 Norte 0 971.6 -1.2 19
2018-08-24 14:00:00 33.8 10 Noroeste 21 Norte 0 972.1 -0.9 21
2018-08-24 13:00:00 32.3 10 Noroeste 17 Noroeste 0 972.5 -0.1 25
2018-08-24 12:00:00 29.7 7 Norte 15 Noroeste 0 972.8 0.6 30
2018-08-24 11:00:00 26.7 7 Norte 11 Norte 0 973 1.4 37
2018-08-24 10:00:00 24.9 4 Norte 8 Norte 0 972.6 1.3 41
2018-08-24 09:00:00 22.9 3 Noroeste 7 Sudoeste 0 972.2 0.9 47
2018-08-24 08:00:00 21.3 7 Sudoeste 9 Sudoeste 0 971.6 0.4 50
2018-08-24 07:00:00 22.2 6 Sudoeste 8 Oeste 0 971.3 -0.2 47
2018-08-24 06:00:00 22.9 4 Oeste 10 Noroeste 0 971.3 -0.6 44
2018-08-24 05:00:00 24.3 5 Sudoeste 9 Oeste 0 971.2 -0.9 41
2018-08-24 04:00:00 25.2 3 Oeste 12 Noroeste 0 971.5 -0.8 38
2018-08-24 03:00:00 26.5 8 Oeste 14 Noroeste 0 971.9 -0.2 35
2018-08-24 02:00:00 26.9 6 Oeste 10 Noroeste 0 972.1 0.5 33
2018-08-24 01:00:00 27.7 5 Noroeste 19 Oeste 0 972.3 1.2 31
2018-08-24 00:00:00 28.2 9 Oeste 18 Oeste 0 972.1 1.7 29